sensor_id;sensor_type;location;lat;lon;timestamp;P1;durP1;ratioP1;P2;durP2;ratioP2
66607;SDS011;53462;39.616;8.824;2022-07-04T00:00:45;2.33;;;0.70;;
66607;SDS011;53462;39.616;8.824;2022-07-04T00:03:11;2.25;;;0.82;;
66607;SDS011;53462;39.616;8.824;2022-07-04T00:05:37;1.75;;;0.90;;
66607;SDS011;53462;39.616;8.824;2022-07-04T00:08:06;3.55;;;1.08;;
66607;SDS011;53462;39.616;8.824;2022-07-04T00:10:32;2.58;;;1.00;;
66607;SDS011;53462;39.616;8.824;2022-07-04T00:12:58;2.03;;;1.02;;
66607;SDS011;53462;39.616;8.824;2022-07-04T00:15:24;1.30;;;0.90;;
66607;SDS011;53462;39.616;8.824;2022-07-04T00:17:50;2.28;;;0.93;;
66607;SDS011;53462;39.616;8.824;2022-07-04T00:20:17;1.90;;;1.30;;
66607;SDS011;53462;39.616;8.824;2022-07-04T00:22:43;2.25;;;1.00;;
66607;SDS011;53462;39.616;8.824;2022-07-04T00:25:10;3.03;;;0.95;;
66607;SDS011;53462;39.616;8.824;2022-07-04T00:27:39;4.00;;;1.10;;
66607;SDS011;53462;39.616;8.824;2022-07-04T00:30:05;2.20;;;1.00;;
66607;SDS011;53462;39.616;8.824;2022-07-04T00:32:31;1.33;;;0.95;;
66607;SDS011;53462;39.616;8.824;2022-07-04T00:34:57;1.40;;;0.90;;
66607;SDS011;53462;39.616;8.824;2022-07-04T00:37:23;1.95;;;1.00;;
66607;SDS011;53462;39.616;8.824;2022-07-04T00:39:49;4.32;;;1.00;;
66607;SDS011;53462;39.616;8.824;2022-07-04T00:42:15;3.10;;;1.40;;
66607;SDS011;53462;39.616;8.824;2022-07-04T00:44:41;4.45;;;1.13;;
66607;SDS011;53462;39.616;8.824;2022-07-04T00:47:07;2.33;;;1.00;;
66607;SDS011;53462;39.616;8.824;2022-07-04T00:49:33;3.15;;;1.10;;
66607;SDS011;53462;39.616;8.824;2022-07-04T00:52:00;3.30;;;1.10;;
66607;SDS011;53462;39.616;8.824;2022-07-04T00:54:27;3.08;;;1.40;;
66607;SDS011;53462;39.616;8.824;2022-07-04T00:56:55;3.47;;;1.20;;
66607;SDS011;53462;39.616;8.824;2022-07-04T00:59:21;3.95;;;1.20;;
66607;SDS011;53462;39.616;8.824;2022-07-04T01:01:48;4.55;;;1.42;;
66607;SDS011;53462;39.616;8.824;2022-07-04T01:04:15;4.10;;;1.30;;
66607;SDS011;53462;39.616;8.824;2022-07-04T01:06:42;2.30;;;1.20;;
66607;SDS011;53462;39.616;8.824;2022-07-04T01:09:08;3.83;;;1.30;;
66607;SDS011;53462;39.616;8.824;2022-07-04T01:11:34;4.18;;;1.15;;
66607;SDS011;53462;39.616;8.824;2022-07-04T01:14:00;3.67;;;1.13;;
66607;SDS011;53462;39.616;8.824;2022-07-04T01:16:28;5.68;;;1.17;;
66607;SDS011;53462;39.616;8.824;2022-07-04T01:18:54;2.90;;;1.15;;
66607;SDS011;53462;39.616;8.824;2022-07-04T01:21:20;2.17;;;1.30;;
66607;SDS011;53462;39.616;8.824;2022-07-04T01:23:46;3.20;;;1.20;;
66607;SDS011;53462;39.616;8.824;2022-07-04T01:26:12;1.98;;;1.30;;
66607;SDS011;53462;39.616;8.824;2022-07-04T01:28:38;4.72;;;1.25;;
66607;SDS011;53462;39.616;8.824;2022-07-04T01:31:05;6.00;;;1.30;;
66607;SDS011;53462;39.616;8.824;2022-07-04T01:33:31;3.22;;;1.35;;
66607;SDS011;53462;39.616;8.824;2022-07-04T01:35:58;4.30;;;1.30;;
66607;SDS011;53462;39.616;8.824;2022-07-04T01:38:24;3.47;;;1.30;;
66607;SDS011;53462;39.616;8.824;2022-07-04T01:40:51;4.53;;;1.23;;
66607;SDS011;53462;39.616;8.824;2022-07-04T01:43:17;3.95;;;1.10;;
66607;SDS011;53462;39.616;8.824;2022-07-04T01:45:43;2.15;;;0.93;;
66607;SDS011;53462;39.616;8.824;2022-07-04T01:48:11;1.38;;;0.90;;
66607;SDS011;53462;39.616;8.824;2022-07-04T01:50:38;4.63;;;1.00;;
66607;SDS011;53462;39.616;8.824;2022-07-04T01:53:05;1.80;;;0.98;;
66607;SDS011;53462;39.616;8.824;2022-07-04T01:55:31;1.45;;;0.95;;
66607;SDS011;53462;39.616;8.824;2022-07-04T01:57:58;2.40;;;1.10;;
66607;SDS011;53462;39.616;8.824;2022-07-04T02:00:25;2.17;;;0.95;;
66607;SDS011;53462;39.616;8.824;2022-07-04T02:03:10;3.00;;;1.10;;
66607;SDS011;53462;39.616;8.824;2022-07-04T02:05:36;4.55;;;1.30;;
66607;SDS011;53462;39.616;8.824;2022-07-04T02:08:03;4.45;;;1.40;;
66607;SDS011;53462;39.616;8.824;2022-07-04T02:10:32;5.53;;;1.40;;
66607;SDS011;53462;39.616;8.824;2022-07-04T02:12:59;2.20;;;1.20;;
66607;SDS011;53462;39.616;8.824;2022-07-04T02:18:06;3.72;;;1.30;;
66607;SDS011;53462;39.616;8.824;2022-07-04T02:20:33;5.03;;;1.50;;
66607;SDS011;53462;39.616;8.824;2022-07-04T02:23:00;2.90;;;1.40;;
66607;SDS011;53462;39.616;8.824;2022-07-04T02:25:28;3.38;;;1.38;;
66607;SDS011;53462;39.616;8.824;2022-07-04T02:27:54;3.97;;;1.63;;
66607;SDS011;53462;39.616;8.824;2022-07-04T02:30:21;3.05;;;1.40;;
66607;SDS011;53462;39.616;8.824;2022-07-04T02:32:48;3.28;;;1.20;;
66607;SDS011;53462;39.616;8.824;2022-07-04T02:35:14;2.03;;;1.20;;
66607;SDS011;53462;39.616;8.824;2022-07-04T02:37:40;8.40;;;1.63;;
66607;SDS011;53462;39.616;8.824;2022-07-04T02:40:06;2.67;;;1.20;;
66607;SDS011;53462;39.616;8.824;2022-07-04T02:42:33;1.73;;;1.30;;
66607;SDS011;53462;39.616;8.824;2022-07-04T02:45:00;4.75;;;1.42;;
66607;SDS011;53462;39.616;8.824;2022-07-04T02:47:27;3.92;;;1.35;;
66607;SDS011;53462;39.616;8.824;2022-07-04T02:49:53;5.18;;;1.45;;
66607;SDS011;53462;39.616;8.824;2022-07-04T02:52:19;5.07;;;1.42;;
66607;SDS011;53462;39.616;8.824;2022-07-04T02:54:45;6.05;;;1.30;;
66607;SDS011;53462;39.616;8.824;2022-07-04T02:57:12;2.67;;;1.20;;
66607;SDS011;53462;39.616;8.824;2022-07-04T02:59:38;4.30;;;1.60;;
66607;SDS011;53462;39.616;8.824;2022-07-04T03:02:04;3.85;;;1.10;;
66607;SDS011;53462;39.616;8.824;2022-07-04T03:04:30;3.60;;;1.35;;
66607;SDS011;53462;39.616;8.824;2022-07-04T03:06:57;2.50;;;1.17;;
66607;SDS011;53462;39.616;8.824;2022-07-04T03:09:23;7.28;;;1.30;;
66607;SDS011;53462;39.616;8.824;2022-07-04T03:11:52;3.38;;;1.33;;
66607;SDS011;53462;39.616;8.824;2022-07-04T03:14:18;5.72;;;1.50;;
66607;SDS011;53462;39.616;8.824;2022-07-04T03:16:44;5.97;;;1.40;;
66607;SDS011;53462;39.616;8.824;2022-07-04T03:19:10;4.68;;;1.50;;
66607;SDS011;53462;39.616;8.824;2022-07-04T03:21:36;5.13;;;1.55;;
66607;SDS011;53462;39.616;8.824;2022-07-04T03:24:02;5.07;;;1.30;;
66607;SDS011;53462;39.616;8.824;2022-07-04T03:26:29;3.08;;;1.27;;
66607;SDS011;53462;39.616;8.824;2022-07-04T03:28:56;2.03;;;1.20;;
66607;SDS011;53462;39.616;8.824;2022-07-04T03:31:23;3.63;;;1.27;;
66607;SDS011;53462;39.616;8.824;2022-07-04T03:33:50;2.28;;;1.30;;
66607;SDS011;53462;39.616;8.824;2022-07-04T03:36:16;6.07;;;1.45;;
66607;SDS011;53462;39.616;8.824;2022-07-04T03:38:43;2.47;;;1.27;;
66607;SDS011;53462;39.616;8.824;2022-07-04T03:41:09;4.20;;;1.25;;
66607;SDS011;53462;39.616;8.824;2022-07-04T03:43:35;3.80;;;1.30;;
66607;SDS011;53462;39.616;8.824;2022-07-04T03:46:01;3.70;;;1.52;;
66607;SDS011;53462;39.616;8.824;2022-07-04T03:48:28;5.38;;;1.30;;
66607;SDS011;53462;39.616;8.824;2022-07-04T03:50:54;2.40;;;1.20;;
66607;SDS011;53462;39.616;8.824;2022-07-04T03:53:21;3.78;;;1.50;;
66607;SDS011;53462;39.616;8.824;2022-07-04T03:55:47;4.82;;;1.50;;
66607;SDS011;53462;39.616;8.824;2022-07-04T03:58:16;6.30;;;1.30;;
66607;SDS011;53462;39.616;8.824;2022-07-04T04:00:42;6.10;;;1.35;;
66607;SDS011;53462;39.616;8.824;2022-07-04T04:03:08;6.60;;;1.40;;
66607;SDS011;53462;39.616;8.824;2022-07-04T04:05:55;10.93;;;2.38;;
66607;SDS011;53462;39.616;8.824;2022-07-04T04:08:21;4.97;;;1.60;;
66607;SDS011;53462;39.616;8.824;2022-07-04T04:10:47;7.43;;;1.40;;
66607;SDS011;53462;39.616;8.824;2022-07-04T04:13:15;5.47;;;1.40;;
66607;SDS011;53462;39.616;8.824;2022-07-04T04:15:41;4.25;;;2.15;;
66607;SDS011;53462;39.616;8.824;2022-07-04T04:18:07;3.72;;;1.30;;
66607;SDS011;53462;39.616;8.824;2022-07-04T04:20:32;3.47;;;1.50;;
66607;SDS011;53462;39.616;8.824;2022-07-04T04:22:58;2.65;;;1.23;;
66607;SDS011;53462;39.616;8.824;2022-07-04T04:25:24;4.13;;;1.30;;
66607;SDS011;53462;39.616;8.824;2022-07-04T04:27:50;2.33;;;1.25;;
66607;SDS011;53462;39.616;8.824;2022-07-04T04:30:16;5.85;;;1.35;;
66607;SDS011;53462;39.616;8.824;2022-07-04T04:32:42;2.15;;;1.40;;
66607;SDS011;53462;39.616;8.824;2022-07-04T04:35:08;3.47;;;1.45;;
66607;SDS011;53462;39.616;8.824;2022-07-04T04:37:34;3.75;;;1.30;;
66607;SDS011;53462;39.616;8.824;2022-07-04T04:40:00;4.18;;;1.35;;
66607;SDS011;53462;39.616;8.824;2022-07-04T04:42:26;1.90;;;1.30;;
66607;SDS011;53462;39.616;8.824;2022-07-04T04:44:53;3.17;;;1.42;;
66607;SDS011;53462;39.616;8.824;2022-07-04T04:47:19;2.00;;;1.30;;
66607;SDS011;53462;39.616;8.824;2022-07-04T04:49:44;4.30;;;1.60;;
66607;SDS011;53462;39.616;8.824;2022-07-04T04:52:10;3.10;;;1.58;;
66607;SDS011;53462;39.616;8.824;2022-07-04T04:54:37;9.30;;;1.60;;
66607;SDS011;53462;39.616;8.824;2022-07-04T04:57:03;3.00;;;1.40;;
66607;SDS011;53462;39.616;8.824;2022-07-04T04:59:30;7.70;;;1.70;;
66607;SDS011;53462;39.616;8.824;2022-07-04T05:01:57;10.75;;;2.20;;
66607;SDS011;53462;39.616;8.824;2022-07-04T05:04:23;14.07;;;2.20;;
66607;SDS011;53462;39.616;8.824;2022-07-04T05:06:49;11.73;;;2.40;;
66607;SDS011;53462;39.616;8.824;2022-07-04T05:09:15;13.13;;;2.03;;
66607;SDS011;53462;39.616;8.824;2022-07-04T05:11:41;4.82;;;1.60;;
66607;SDS011;53462;39.616;8.824;2022-07-04T05:14:07;12.18;;;2.03;;
66607;SDS011;53462;39.616;8.824;2022-07-04T05:16:33;6.95;;;1.90;;
66607;SDS011;53462;39.616;8.824;2022-07-04T05:18:59;6.00;;;1.88;;
66607;SDS011;53462;39.616;8.824;2022-07-04T05:21:26;6.53;;;2.00;;
66607;SDS011;53462;39.616;8.824;2022-07-04T05:23:53;3.90;;;1.60;;
66607;SDS011;53462;39.616;8.824;2022-07-04T05:26:20;9.02;;;1.70;;
66607;SDS011;53462;39.616;8.824;2022-07-04T05:28:47;6.90;;;1.70;;
66607;SDS011;53462;39.616;8.824;2022-07-04T05:31:12;4.47;;;1.73;;
66607;SDS011;53462;39.616;8.824;2022-07-04T05:33:38;4.82;;;1.67;;
66607;SDS011;53462;39.616;8.824;2022-07-04T05:36:04;3.35;;;1.40;;
66607;SDS011;53462;39.616;8.824;2022-07-04T05:38:31;12.98;;;2.00;;
66607;SDS011;53462;39.616;8.824;2022-07-04T05:40:57;6.43;;;1.63;;
66607;SDS011;53462;39.616;8.824;2022-07-04T05:43:23;4.65;;;1.73;;
66607;SDS011;53462;39.616;8.824;2022-07-04T05:45:50;8.65;;;1.52;;
66607;SDS011;53462;39.616;8.824;2022-07-04T05:48:17;5.20;;;1.60;;
66607;SDS011;53462;39.616;8.824;2022-07-04T05:50:43;5.22;;;1.60;;
66607;SDS011;53462;39.616;8.824;2022-07-04T05:53:09;8.32;;;1.50;;
66607;SDS011;53462;39.616;8.824;2022-07-04T05:55:35;5.38;;;1.50;;
66607;SDS011;53462;39.616;8.824;2022-07-04T05:58:00;2.85;;;1.50;;
66607;SDS011;53462;39.616;8.824;2022-07-04T06:00:26;6.85;;;1.75;;
66607;SDS011;53462;39.616;8.824;2022-07-04T06:02:52;9.27;;;1.55;;
66607;SDS011;53462;39.616;8.824;2022-07-04T06:05:18;6.65;;;1.83;;
66607;SDS011;53462;39.616;8.824;2022-07-04T06:07:44;4.70;;;1.48;;
66607;SDS011;53462;39.616;8.824;2022-07-04T06:10:10;11.40;;;2.08;;
66607;SDS011;53462;39.616;8.824;2022-07-04T06:12:36;30.63;;;3.10;;
66607;SDS011;53462;39.616;8.824;2022-07-04T06:15:02;17.30;;;2.00;;
66607;SDS011;53462;39.616;8.824;2022-07-04T06:17:30;5.20;;;1.40;;
66607;SDS011;53462;39.616;8.824;2022-07-04T06:19:56;4.88;;;1.60;;
66607;SDS011;53462;39.616;8.824;2022-07-04T06:22:22;5.82;;;1.55;;
66607;SDS011;53462;39.616;8.824;2022-07-04T06:24:47;5.47;;;1.60;;
66607;SDS011;53462;39.616;8.824;2022-07-04T06:27:13;5.72;;;1.52;;
66607;SDS011;53462;39.616;8.824;2022-07-04T06:29:39;10.52;;;1.75;;
66607;SDS011;53462;39.616;8.824;2022-07-04T06:32:05;11.23;;;1.90;;
66607;SDS011;53462;39.616;8.824;2022-07-04T06:34:32;7.68;;;1.60;;
66607;SDS011;53462;39.616;8.824;2022-07-04T06:37:33;7.72;;;1.80;;
66607;SDS011;53462;39.616;8.824;2022-07-04T06:39:59;6.35;;;1.80;;
66607;SDS011;53462;39.616;8.824;2022-07-04T06:42:25;7.80;;;1.50;;
66607;SDS011;53462;39.616;8.824;2022-07-04T06:44:55;7.55;;;1.50;;
66607;SDS011;53462;39.616;8.824;2022-07-04T06:47:21;7.03;;;1.80;;
66607;SDS011;53462;39.616;8.824;2022-07-04T06:49:47;4.90;;;1.70;;
66607;SDS011;53462;39.616;8.824;2022-07-04T06:52:13;5.30;;;1.42;;
66607;SDS011;53462;39.616;8.824;2022-07-04T06:54:39;11.85;;;1.77;;
66607;SDS011;53462;39.616;8.824;2022-07-04T06:57:04;4.30;;;1.48;;
66607;SDS011;53462;39.616;8.824;2022-07-04T06:59:30;5.40;;;1.40;;
66607;SDS011;53462;39.616;8.824;2022-07-04T07:01:56;7.20;;;1.50;;
66607;SDS011;53462;39.616;8.824;2022-07-04T07:04:22;3.90;;;1.35;;
66607;SDS011;53462;39.616;8.824;2022-07-04T07:06:48;8.20;;;1.70;;
66607;SDS011;53462;39.616;8.824;2022-07-04T07:09:14;9.68;;;1.50;;
66607;SDS011;53462;39.616;8.824;2022-07-04T07:11:40;3.17;;;1.20;;
66607;SDS011;53462;39.616;8.824;2022-07-04T07:14:06;9.93;;;1.88;;
66607;SDS011;53462;39.616;8.824;2022-07-04T07:16:32;5.40;;;1.73;;
66607;SDS011;53462;39.616;8.824;2022-07-04T07:18:57;3.92;;;1.58;;
66607;SDS011;53462;39.616;8.824;2022-07-04T07:21:23;5.18;;;1.35;;
66607;SDS011;53462;39.616;8.824;2022-07-04T07:23:49;3.53;;;1.33;;
66607;SDS011;53462;39.616;8.824;2022-07-04T07:26:15;4.45;;;1.73;;
66607;SDS011;53462;39.616;8.824;2022-07-04T07:28:41;9.13;;;1.50;;
66607;SDS011;53462;39.616;8.824;2022-07-04T07:31:07;9.07;;;1.90;;
66607;SDS011;53462;39.616;8.824;2022-07-04T07:33:33;5.47;;;1.63;;
66607;SDS011;53462;39.616;8.824;2022-07-04T07:35:59;8.55;;;1.35;;
66607;SDS011;53462;39.616;8.824;2022-07-04T07:38:25;3.17;;;1.15;;
66607;SDS011;53462;39.616;8.824;2022-07-04T07:40:51;5.13;;;1.42;;
66607;SDS011;53462;39.616;8.824;2022-07-04T07:43:17;6.65;;;1.45;;
66607;SDS011;53462;39.616;8.824;2022-07-04T07:45:43;3.15;;;1.25;;
66607;SDS011;53462;39.616;8.824;2022-07-04T07:48:09;11.82;;;1.50;;
66607;SDS011;53462;39.616;8.824;2022-07-04T07:50:35;3.83;;;1.48;;
66607;SDS011;53462;39.616;8.824;2022-07-04T07:53:01;6.18;;;1.30;;
66607;SDS011;53462;39.616;8.824;2022-07-04T07:55:27;6.18;;;1.20;;
66607;SDS011;53462;39.616;8.824;2022-07-04T07:57:53;4.28;;;1.50;;
66607;SDS011;53462;39.616;8.824;2022-07-04T08:00:19;4.57;;;1.52;;
66607;SDS011;53462;39.616;8.824;2022-07-04T08:02:45;5.18;;;1.60;;
66607;SDS011;53462;39.616;8.824;2022-07-04T08:05:31;5.40;;;1.30;;
66607;SDS011;53462;39.616;8.824;2022-07-04T08:07:57;12.25;;;1.92;;
66607;SDS011;53462;39.616;8.824;2022-07-04T08:10:24;7.95;;;1.67;;
66607;SDS011;53462;39.616;8.824;2022-07-04T08:12:50;2.55;;;1.20;;
66607;SDS011;53462;39.616;8.824;2022-07-04T08:15:17;5.25;;;1.60;;
66607;SDS011;53462;39.616;8.824;2022-07-04T08:17:43;11.63;;;1.60;;
66607;SDS011;53462;39.616;8.824;2022-07-04T08:20:09;3.25;;;1.40;;
66607;SDS011;53462;39.616;8.824;2022-07-04T08:22:35;3.63;;;1.40;;
66607;SDS011;53462;39.616;8.824;2022-07-04T08:25:01;4.30;;;1.50;;
66607;SDS011;53462;39.616;8.824;2022-07-04T08:27:27;4.30;;;1.67;;
66607;SDS011;53462;39.616;8.824;2022-07-04T08:29:53;6.25;;;1.90;;
66607;SDS011;53462;39.616;8.824;2022-07-04T08:32:19;4.85;;;1.30;;
66607;SDS011;53462;39.616;8.824;2022-07-04T08:34:46;5.72;;;1.70;;
66607;SDS011;53462;39.616;8.824;2022-07-04T08:37:12;5.88;;;1.58;;
66607;SDS011;53462;39.616;8.824;2022-07-04T08:39:38;6.22;;;1.70;;
66607;SDS011;53462;39.616;8.824;2022-07-04T08:42:09;6.70;;;1.52;;
66607;SDS011;53462;39.616;8.824;2022-07-04T08:44:38;6.10;;;1.35;;
66607;SDS011;53462;39.616;8.824;2022-07-04T08:47:10;8.05;;;1.30;;
66607;SDS011;53462;39.616;8.824;2022-07-04T08:49:46;5.00;;;1.30;;
66607;SDS011;53462;39.616;8.824;2022-07-04T08:52:37;4.72;;;1.55;;
66607;SDS011;53462;39.616;8.824;2022-07-04T08:55:09;9.00;;;1.50;;
66607;SDS011;53462;39.616;8.824;2022-07-04T08:57:55;6.97;;;1.50;;
66607;SDS011;53462;39.616;8.824;2022-07-04T09:00:40;7.50;;;1.30;;
66607;SDS011;53462;39.616;8.824;2022-07-04T09:03:06;5.95;;;1.45;;
66607;SDS011;53462;39.616;8.824;2022-07-04T09:05:33;6.28;;;1.48;;
66607;SDS011;53462;39.616;8.824;2022-07-04T09:15:30;17.75;;;1.83;;
66607;SDS011;53462;39.616;8.824;2022-07-04T09:17:57;14.43;;;1.88;;
66607;SDS011;53462;39.616;8.824;2022-07-04T09:20:23;16.83;;;1.73;;
66607;SDS011;53462;39.616;8.824;2022-07-04T09:22:51;8.68;;;1.75;;
66607;SDS011;53462;39.616;8.824;2022-07-04T09:25:19;15.77;;;2.00;;
66607;SDS011;53462;39.616;8.824;2022-07-04T09:27:47;15.75;;;1.58;;
66607;SDS011;53462;39.616;8.824;2022-07-04T09:30:15;8.68;;;1.55;;
66607;SDS011;53462;39.616;8.824;2022-07-04T09:32:44;8.45;;;1.60;;
66607;SDS011;53462;39.616;8.824;2022-07-04T09:35:30;13.55;;;1.85;;
66607;SDS011;53462;39.616;8.824;2022-07-04T09:37:59;9.43;;;1.80;;
66607;SDS011;53462;39.616;8.824;2022-07-04T09:40:32;11.25;;;1.98;;
66607;SDS011;53462;39.616;8.824;2022-07-04T09:43:00;12.60;;;1.90;;
66607;SDS011;53462;39.616;8.824;2022-07-04T09:45:35;18.95;;;2.10;;
66607;SDS011;53462;39.616;8.824;2022-07-04T09:48:23;11.70;;;1.80;;
66607;SDS011;53462;39.616;8.824;2022-07-04T09:50:50;8.60;;;2.05;;
66607;SDS011;53462;39.616;8.824;2022-07-04T09:53:16;13.73;;;1.92;;
66607;SDS011;53462;39.616;8.824;2022-07-04T09:55:43;17.05;;;2.45;;
66607;SDS011;53462;39.616;8.824;2022-07-04T09:58:12;15.43;;;2.30;;
66607;SDS011;53462;39.616;8.824;2022-07-04T10:00:40;13.30;;;2.10;;
66607;SDS011;53462;39.616;8.824;2022-07-04T10:06:04;18.80;;;2.30;;
66607;SDS011;53462;39.616;8.824;2022-07-04T10:08:31;17.55;;;1.88;;
66607;SDS011;53462;39.616;8.824;2022-07-04T10:10:58;15.07;;;1.88;;
66607;SDS011;53462;39.616;8.824;2022-07-04T10:13:25;8.65;;;2.08;;
66607;SDS011;53462;39.616;8.824;2022-07-04T10:15:51;12.35;;;1.90;;
66607;SDS011;53462;39.616;8.824;2022-07-04T10:18:18;12.32;;;1.98;;
66607;SDS011;53462;39.616;8.824;2022-07-04T10:20:46;18.15;;;2.30;;
66607;SDS011;53462;39.616;8.824;2022-07-04T10:23:14;21.33;;;2.15;;
66607;SDS011;53462;39.616;8.824;2022-07-04T10:25:41;17.90;;;2.20;;
66607;SDS011;53462;39.616;8.824;2022-07-04T10:28:07;11.45;;;2.60;;
66607;SDS011;53462;39.616;8.824;2022-07-04T10:30:34;16.20;;;2.47;;
66607;SDS011;53462;39.616;8.824;2022-07-04T10:33:04;12.18;;;2.28;;
66607;SDS011;53462;39.616;8.824;2022-07-04T10:38:23;15.73;;;1.77;;
66607;SDS011;53462;39.616;8.824;2022-07-04T10:40:53;14.27;;;1.83;;
66607;SDS011;53462;39.616;8.824;2022-07-04T10:45:51;27.63;;;2.88;;
66607;SDS011;53462;39.616;8.824;2022-07-04T10:48:23;13.10;;;2.35;;
66607;SDS011;53462;39.616;8.824;2022-07-04T10:51:05;12.25;;;2.00;;
66607;SDS011;53462;39.616;8.824;2022-07-04T10:53:33;26.40;;;2.70;;
66607;SDS011;53462;39.616;8.824;2022-07-04T10:58:45;15.93;;;2.80;;
66607;SDS011;53462;39.616;8.824;2022-07-04T11:01:17;24.27;;;3.25;;
66607;SDS011;53462;39.616;8.824;2022-07-04T11:11:56;23.25;;;3.50;;
66607;SDS011;53462;39.616;8.824;2022-07-04T11:17:13;27.30;;;3.10;;
66607;SDS011;53462;39.616;8.824;2022-07-04T11:19:40;19.50;;;2.97;;
66607;SDS011;53462;39.616;8.824;2022-07-04T11:22:07;18.30;;;2.97;;
66607;SDS011;53462;39.616;8.824;2022-07-04T11:24:35;22.23;;;3.20;;
66607;SDS011;53462;39.616;8.824;2022-07-04T11:27:03;21.45;;;3.05;;
66607;SDS011;53462;39.616;8.824;2022-07-04T11:29:29;34.97;;;3.50;;
66607;SDS011;53462;39.616;8.824;2022-07-04T11:31:56;27.52;;;3.35;;
66607;SDS011;53462;39.616;8.824;2022-07-04T11:34:22;30.00;;;3.50;;
66607;SDS011;53462;39.616;8.824;2022-07-04T11:36:50;15.15;;;2.47;;
66607;SDS011;53462;39.616;8.824;2022-07-04T11:39:17;12.00;;;2.00;;
66607;SDS011;53462;39.616;8.824;2022-07-04T11:41:45;10.48;;;1.52;;
66607;SDS011;53462;39.616;8.824;2022-07-04T11:44:33;11.55;;;1.75;;
66607;SDS011;53462;39.616;8.824;2022-07-04T11:47:23;8.65;;;1.70;;
66607;SDS011;53462;39.616;8.824;2022-07-04T11:49:56;13.35;;;2.22;;
66607;SDS011;53462;39.616;8.824;2022-07-04T11:52:31;12.48;;;2.20;;
66607;SDS011;53462;39.616;8.824;2022-07-04T11:55:14;9.05;;;1.73;;
66607;SDS011;53462;39.616;8.824;2022-07-04T11:57:42;4.95;;;1.70;;
66607;SDS011;53462;39.616;8.824;2022-07-04T12:00:15;17.30;;;1.90;;
66607;SDS011;53462;39.616;8.824;2022-07-04T12:02:42;10.35;;;1.70;;
66607;SDS011;53462;39.616;8.824;2022-07-04T12:05:10;9.23;;;1.45;;
66607;SDS011;53462;39.616;8.824;2022-07-04T12:07:41;6.57;;;1.50;;
66607;SDS011;53462;39.616;8.824;2022-07-04T12:15:37;10.35;;;1.52;;
66607;SDS011;53462;39.616;8.824;2022-07-04T12:18:04;8.27;;;1.50;;
66607;SDS011;53462;39.616;8.824;2022-07-04T12:20:40;8.90;;;1.55;;
66607;SDS011;53462;39.616;8.824;2022-07-04T12:23:06;9.52;;;1.80;;
66607;SDS011;53462;39.616;8.824;2022-07-04T12:25:35;10.25;;;1.60;;
66607;SDS011;53462;39.616;8.824;2022-07-04T12:28:03;5.13;;;1.50;;
66607;SDS011;53462;39.616;8.824;2022-07-04T12:30:40;12.93;;;1.58;;
66607;SDS011;53462;39.616;8.824;2022-07-04T12:33:18;14.43;;;1.70;;
66607;SDS011;53462;39.616;8.824;2022-07-04T12:35:47;8.60;;;1.70;;
66607;SDS011;53462;39.616;8.824;2022-07-04T12:38:33;13.60;;;1.70;;
66607;SDS011;53462;39.616;8.824;2022-07-04T12:46:05;6.75;;;1.25;;
66607;SDS011;53462;39.616;8.824;2022-07-04T12:48:34;11.95;;;1.77;;
66607;SDS011;53462;39.616;8.824;2022-07-04T12:51:34;13.35;;;1.60;;
66607;SDS011;53462;39.616;8.824;2022-07-04T12:53:55;10.45;;;1.63;;
66607;SDS011;53462;39.616;8.824;2022-07-04T12:58:57;9.85;;;1.50;;
66607;SDS011;53462;39.616;8.824;2022-07-04T13:01:23;9.75;;;1.67;;
66607;SDS011;53462;39.616;8.824;2022-07-04T13:03:49;9.10;;;1.90;;
66607;SDS011;53462;39.616;8.824;2022-07-04T13:06:15;10.55;;;1.70;;
66607;SDS011;53462;39.616;8.824;2022-07-04T13:08:41;13.90;;;1.67;;
66607;SDS011;53462;39.616;8.824;2022-07-04T13:11:07;7.88;;;1.42;;
66607;SDS011;53462;39.616;8.824;2022-07-04T13:13:51;9.00;;;1.42;;
66607;SDS011;53462;39.616;8.824;2022-07-04T13:16:17;6.88;;;1.50;;
66607;SDS011;53462;39.616;8.824;2022-07-04T13:18:43;7.65;;;1.60;;
66607;SDS011;53462;39.616;8.824;2022-07-04T13:21:09;7.25;;;1.58;;
66607;SDS011;53462;39.616;8.824;2022-07-04T13:23:35;7.95;;;1.40;;
66607;SDS011;53462;39.616;8.824;2022-07-04T13:26:02;6.82;;;1.23;;
66607;SDS011;53462;39.616;8.824;2022-07-04T13:28:28;8.95;;;1.48;;
66607;SDS011;53462;39.616;8.824;2022-07-04T13:30:54;10.20;;;1.65;;
66607;SDS011;53462;39.616;8.824;2022-07-04T13:33:21;8.13;;;1.70;;
66607;SDS011;53462;39.616;8.824;2022-07-04T13:35:47;7.00;;;1.42;;
66607;SDS011;53462;39.616;8.824;2022-07-04T13:38:12;6.30;;;1.30;;
66607;SDS011;53462;39.616;8.824;2022-07-04T13:40:42;3.50;;;1.30;;
66607;SDS011;53462;39.616;8.824;2022-07-04T13:43:10;5.80;;;1.60;;
66607;SDS011;53462;39.616;8.824;2022-07-04T13:45:37;3.97;;;1.40;;
66607;SDS011;53462;39.616;8.824;2022-07-04T13:48:08;9.77;;;1.90;;
66607;SDS011;53462;39.616;8.824;2022-07-04T13:50:34;4.82;;;1.45;;
66607;SDS011;53462;39.616;8.824;2022-07-04T13:53:03;4.53;;;1.58;;
66607;SDS011;53462;39.616;8.824;2022-07-04T13:55:30;6.97;;;1.58;;
66607;SDS011;53462;39.616;8.824;2022-07-04T13:57:57;6.82;;;1.63;;
66607;SDS011;53462;39.616;8.824;2022-07-04T14:00:23;5.30;;;1.48;;
66607;SDS011;53462;39.616;8.824;2022-07-04T14:02:49;3.42;;;1.33;;
66607;SDS011;53462;39.616;8.824;2022-07-04T14:05:15;7.70;;;1.30;;
66607;SDS011;53462;39.616;8.824;2022-07-04T14:07:41;7.40;;;1.48;;
66607;SDS011;53462;39.616;8.824;2022-07-04T14:10:07;3.22;;;1.00;;
66607;SDS011;53462;39.616;8.824;2022-07-04T14:12:33;6.63;;;1.48;;
66607;SDS011;53462;39.616;8.824;2022-07-04T14:14:59;8.45;;;1.20;;
66607;SDS011;53462;39.616;8.824;2022-07-04T14:17:28;4.90;;;1.00;;
66607;SDS011;53462;39.616;8.824;2022-07-04T14:19:54;9.88;;;1.70;;
66607;SDS011;53462;39.616;8.824;2022-07-04T14:22:21;13.50;;;1.52;;
66607;SDS011;53462;39.616;8.824;2022-07-04T14:24:47;6.05;;;1.20;;
66607;SDS011;53462;39.616;8.824;2022-07-04T14:27:13;5.32;;;1.20;;
66607;SDS011;53462;39.616;8.824;2022-07-04T14:29:40;5.28;;;1.20;;
66607;SDS011;53462;39.616;8.824;2022-07-04T14:32:06;6.35;;;1.10;;
66607;SDS011;53462;39.616;8.824;2022-07-04T14:34:33;6.25;;;1.27;;
66607;SDS011;53462;39.616;8.824;2022-07-04T14:36:59;6.22;;;1.30;;
66607;SDS011;53462;39.616;8.824;2022-07-04T14:39:26;6.47;;;1.40;;
66607;SDS011;53462;39.616;8.824;2022-07-04T14:41:52;3.25;;;1.17;;
66607;SDS011;53462;39.616;8.824;2022-07-04T14:44:19;3.90;;;1.10;;
66607;SDS011;53462;39.616;8.824;2022-07-04T14:46:45;8.00;;;1.30;;
66607;SDS011;53462;39.616;8.824;2022-07-04T14:49:11;3.38;;;1.10;;
66607;SDS011;53462;39.616;8.824;2022-07-04T14:51:37;6.32;;;1.25;;
66607;SDS011;53462;39.616;8.824;2022-07-04T14:54:06;6.50;;;1.30;;
66607;SDS011;53462;39.616;8.824;2022-07-04T14:56:33;4.70;;;1.33;;
66607;SDS011;53462;39.616;8.824;2022-07-04T14:58:59;6.70;;;1.20;;
66607;SDS011;53462;39.616;8.824;2022-07-04T15:01:25;5.88;;;1.50;;
66607;SDS011;53462;39.616;8.824;2022-07-04T15:03:52;4.70;;;1.30;;
66607;SDS011;53462;39.616;8.824;2022-07-04T15:06:19;2.58;;;1.17;;
66607;SDS011;53462;39.616;8.824;2022-07-04T15:08:45;4.75;;;2.17;;
66607;SDS011;53462;39.616;8.824;2022-07-04T15:11:11;3.88;;;1.20;;
66607;SDS011;53462;39.616;8.824;2022-07-04T15:13:37;5.47;;;3.08;;
66607;SDS011;53462;39.616;8.824;2022-07-04T15:16:03;5.25;;;2.47;;
66607;SDS011;53462;39.616;8.824;2022-07-04T15:18:30;8.18;;;3.10;;
66607;SDS011;53462;39.616;8.824;2022-07-04T15:20:55;4.47;;;2.30;;
66607;SDS011;53462;39.616;8.824;2022-07-04T15:23:40;9.68;;;5.45;;
66607;SDS011;53462;39.616;8.824;2022-07-04T15:26:24;5.40;;;2.30;;
66607;SDS011;53462;39.616;8.824;2022-07-04T15:28:50;3.58;;;1.40;;
66607;SDS011;53462;39.616;8.824;2022-07-04T15:31:16;3.33;;;1.35;;
66607;SDS011;53462;39.616;8.824;2022-07-04T15:33:42;1.98;;;0.98;;